Aérodrome :
LOGIN :

S'inscrire | Disclaimer

   EN    FR    IT 

 










Légende :    VFR   VFR Marginal   IFR   IFR Intensif   IFR Très Intensif
Visi : 
Plafond : 
>= 8 km
>= 3000ft
5 à 8 km
1000 à 3000 ft
1500m à 5 km
500 à 1000 ft
800 à 1500m
200 à 500 ft
< 800m
< 200 ft
Symboles :   Orages  Brouillard  Fortes neiges  Fortes précipitations  Vent > 20 kt
SIGMETs :   Divers  Orages  Givrage  Turbulence  Onde Orograph.  Cendres Volcan.







- Altitude de l'aérodrome : 458 ft
- Voir les cartes d'approche


LFSI - St-Dizier

DERNIER METAR :
  • 280730Z AUTO 19010KT 150V220 9999 FEW027 05/01 Q0996

METARs EXPIRÉS :
  • 280700Z AUTO 19009KT CAVOK 05/01 Q0996
  • 280630Z AUTO 20011KT 160V220 9999 FEW032 BKN170 OVC190 05/01 Q0996
  • 280600Z AUTO 20011KT 9999 FEW028 SCT190 OVC210 05/01 Q0997
  • 280530Z AUTO 21013KT 9999 BKN031 OVC200 06/01 Q0997
  • 280500Z AUTO 21015KT 190V250 9999 FEW033 SCT090 BKN210 05/01 Q0997

TAF TAF LFSI
Valide du 28 à 03h jusqu'au 01 à 03h UTC


280200Z 2803/0103 23015G30KT 9999 BKN025
BECMG 2807/2809 BKN020TCU
TEMPO 2809/2818 23025G35KT 1000 TSGS BKN010 BKN020CB
BECMG 2820/2822 BKN010
Pas de NOTAMs connus pour ce terrain.
1 SIGMET publié pour la FIR Paris (LFFF) :
 
Turbulence forte
LFFF SIGMET 1 VALID 280400/280800 LFPW
LFFF PARIS FIR/UIR SEV TURB FCST WI N4900 W00015 - N5000 W00015 - N5115 E00200 - N5015 E00200 SFC/FL060 STNR WKN=



MET'MAP, la Météo Aéronautique d'un coup d'oeil ! - Copyright ORBIFLY Décembre 2007 - Disclaimer

ORBIFLY MET'MAP TEAM :

Programmation & Développement : Alexandra Zaïnal
Conception & Développement : Baudouin d'Aumeries
Co-Programmation & Développement : Marc-Olivier Méhu
Soutien technique & logistique : Manuel Goepfert

Contact : metmap@orbifly.com




SOURCES & CREDITS :

   NOAA